createdAt,value
2018-07-01T00:01:56.990Z,100059.81
2018-07-01T00:04:23.903Z,100055.02
2018-07-01T00:06:50.745Z,100057.36
2018-07-01T00:09:17.643Z,100058.73
2018-07-01T00:11:44.598Z,100066.73
2018-07-01T00:14:11.555Z,100057.83
2018-07-01T00:16:39.475Z,100058.44
2018-07-01T00:19:13.650Z,100062.78
2018-07-01T00:21:40.723Z,100067.25
2018-07-01T00:27:00.150Z,100072.92
2018-07-01T00:29:34.311Z,100072.26
2018-07-01T00:32:04.218Z,100075.45
2018-07-01T00:34:34.133Z,100071.75
2018-07-01T00:37:01.063Z,100067.09
2018-07-01T00:39:29.982Z,100066.38
2018-07-01T00:41:56.918Z,100068.09
2018-07-01T00:44:24.710Z,100072.55
2018-07-01T00:46:51.681Z,100074.56
2018-07-01T00:49:23.850Z,100069.11
2018-07-01T00:51:56.907Z,100073.00
2018-07-01T00:54:23.822Z,100080.95
2018-07-01T00:56:50.778Z,100078.46
2018-07-01T00:59:19.782Z,100075.39
2018-07-01T01:01:49.795Z,100081.57
2018-07-01T01:04:17.691Z,100082.38
2018-07-01T01:06:46.679Z,100085.63
2018-07-01T01:09:14.330Z,100090.12
2018-07-01T01:11:41.385Z,100080.30
2018-07-01T01:14:09.314Z,100089.50
2018-07-01T01:16:41.910Z,100084.91
2018-07-01T01:19:11.822Z,100087.85
2018-07-01T01:21:52.650Z,100088.09
2018-07-01T01:24:25.178Z,100087.90
2018-07-01T01:26:53.094Z,100089.11
2018-07-01T01:29:19.986Z,100090.81
2018-07-01T01:31:47.698Z,100089.38
2018-07-01T01:34:16.166Z,100083.55
2018-07-01T01:36:50.743Z,100091.70
2018-07-01T01:39:30.273Z,100088.14
2018-07-01T01:42:08.218Z,100093.02
2018-07-01T01:44:40.654Z,100088.64
2018-07-01T01:47:13.682Z,100095.98
2018-07-01T01:49:46.170Z,100094.20
2018-07-01T01:52:16.394Z,100091.50
2018-07-01T01:54:48.154Z,100086.55
2018-07-01T01:57:24.864Z,100087.45
2018-07-01T01:59:56.527Z,100089.88
2018-07-01T02:02:44.379Z,100090.17
2018-07-01T02:05:34.630Z,100084.30
2018-07-01T02:08:05.538Z,100089.12
2018-07-01T02:10:32.502Z,100092.19
2018-07-01T02:13:00.517Z,100090.98
2018-07-01T02:15:32.546Z,100091.55
2018-07-01T02:17:59.569Z,100097.69
2018-07-01T02:23:29.366Z,100088.22
2018-07-01T02:25:56.322Z,100085.11
2018-07-01T02:28:23.291Z,100086.53
2018-07-01T02:30:59.930Z,100089.34
2018-07-01T02:33:29.891Z,100091.29
2018-07-01T02:35:57.083Z,100089.36
2018-07-01T02:38:24.743Z,100091.29
2018-07-01T02:40:51.692Z,100085.23
2018-07-01T02:43:19.687Z,100096.42
2018-07-01T02:45:46.606Z,100093.70
2018-07-01T02:48:13.490Z,100089.58
2018-07-01T02:50:41.267Z,100082.18
2018-07-01T02:53:18.970Z,100084.83
2018-07-01T02:55:48.912Z,100091.89
2018-07-01T02:58:21.162Z,100084.45
2018-07-01T03:00:49.777Z,100073.66
2018-07-01T03:03:22.062Z,100076.12
2018-07-01T03:05:55.016Z,100080.16
2018-07-01T03:08:21.860Z,100084.55
2018-07-01T03:10:51.789Z,100082.35
2018-07-01T03:13:19.186Z,100093.33
2018-07-01T03:15:49.719Z,100092.10
2018-07-01T03:18:26.713Z,100097.27
2018-07-01T03:20:56.988Z,100090.42
2018-07-01T03:23:27.379Z,100088.77
2018-07-01T03:25:55.506Z,100106.05
2018-07-01T03:28:35.104Z,100106.72
2018-07-01T03:31:10.275Z,100104.04
2018-07-01T03:33:38.566Z,100104.23
2018-07-01T03:36:08.663Z,100099.17
2018-07-01T03:38:36.632Z,100104.35
2018-07-01T03:41:03.582Z,100106.92
2018-07-01T03:43:30.510Z,100095.84
2018-07-01T03:46:00.770Z,100106.88
2018-07-01T03:48:28.319Z,100102.11
2018-07-01T03:50:55.186Z,100105.58
2018-07-01T03:53:22.185Z,100107.59
2018-07-01T03:55:49.839Z,100114.30
2018-07-01T03:58:17.220Z,100111.78
2018-07-01T04:00:44.297Z,100112.59
2018-07-01T04:03:11.208Z,100111.28
2018-07-01T04:05:44.286Z,100113.84
2018-07-01T04:08:12.810Z,100116.77
2018-07-01T04:10:43.463Z,100120.02
2018-07-01T04:13:10.418Z,100114.79
2018-07-01T04:15:37.387Z,100120.56
2018-07-01T04:18:04.734Z,100114.58
2018-07-01T04:20:33.722Z,100119.39
2018-07-01T04:23:05.152Z,100121.13
2018-07-01T04:25:35.638Z,100127.69
2018-07-01T04:28:03.322Z,100116.15
2018-07-01T04:30:30.287Z,100115.69
2018-07-01T04:33:00.202Z,100126.28
2018-07-01T04:35:27.166Z,100122.22
2018-07-01T04:37:54.802Z,100126.67
2018-07-01T04:40:21.782Z,100129.83
2018-07-01T04:42:48.751Z,100133.92
2018-07-01T04:45:15.703Z,100139.09
2018-07-01T04:47:46.056Z,100139.54
2018-07-01T04:50:13.006Z,100134.67
2018-07-01T04:52:39.999Z,100140.21
2018-07-01T04:55:08.021Z,100131.80
2018-07-01T04:57:35.965Z,100134.74
2018-07-01T05:00:05.802Z,100148.70
2018-07-01T05:02:32.796Z,100134.54
2018-07-01T05:05:01.469Z,100135.02
2018-07-01T05:07:28.915Z,100136.62
2018-07-01T05:09:55.842Z,100138.08
2018-07-01T05:12:22.786Z,100137.51
2018-07-01T05:14:49.784Z,100134.63
2018-07-01T05:17:17.763Z,100139.38
2018-07-01T05:19:44.682Z,100137.05
2018-07-01T05:22:11.602Z,100143.75
2018-07-01T05:24:38.457Z,100142.53
2018-07-01T05:27:05.415Z,100143.23
2018-07-01T05:29:33.858Z,100150.48
2018-07-01T05:32:00.806Z,100153.30
2018-07-01T05:34:27.760Z,100148.94
2018-07-01T05:36:54.730Z,100145.77
2018-07-01T05:39:21.676Z,100150.43
2018-07-01T05:41:48.538Z,100143.14
2018-07-01T05:44:16.383Z,100146.08
2018-07-01T05:46:43.443Z,100141.66
2018-07-01T05:49:10.338Z,100140.75
2018-07-01T05:51:39.326Z,100132.38
2018-07-01T05:54:12.438Z,100129.73
2018-07-01T05:56:42.342Z,100141.48
2018-07-01T05:59:09.330Z,100137.54
2018-07-01T06:01:40.169Z,100139.25
2018-07-01T06:04:10.114Z,100139.30
2018-07-01T06:06:37.014Z,100146.16
2018-07-01T06:09:07.907Z,100146.96
2018-07-01T06:11:35.886Z,100144.02
2018-07-01T06:14:03.810Z,100141.91
2018-07-01T06:16:30.732Z,100148.89
2018-07-01T06:18:57.635Z,100145.35
2018-07-01T06:21:24.534Z,100144.03
2018-07-01T06:23:51.499Z,100143.31
2018-07-01T06:29:18.130Z,100144.07
2018-07-01T06:31:45.891Z,100145.31
2018-07-01T06:34:13.379Z,100149.34
2018-07-01T06:36:48.179Z,100150.13
2018-07-01T06:39:15.834Z,100148.63
2018-07-01T06:41:42.763Z,100154.30
2018-07-01T06:44:09.741Z,100152.87
2018-07-01T06:46:36.692Z,100153.27
2018-07-01T06:49:04.995Z,100155.33
2018-07-01T06:51:32.972Z,100155.67
2018-07-01T06:53:59.911Z,100157.88
2018-07-01T06:56:27.855Z,100156.19
2018-07-01T06:58:55.554Z,100158.23
2018-07-01T07:01:22.419Z,100157.34
2018-07-01T07:03:49.353Z,100169.17
2018-07-01T07:06:16.208Z,100168.92
2018-07-01T07:08:43.168Z,100161.05
2018-07-01T07:11:10.029Z,100160.27
2018-07-01T07:13:36.949Z,100160.31
2018-07-01T07:16:03.820Z,100154.05
2018-07-01T07:18:30.778Z,100173.05
2018-07-01T07:20:57.749Z,100165.42
2018-07-01T07:23:24.635Z,100168.04
2018-07-01T07:25:51.501Z,100164.73
2018-07-01T07:28:18.365Z,100160.58
2018-07-01T07:30:45.223Z,100160.27
2018-07-01T07:33:12.140Z,100161.75
2018-07-01T07:35:39.018Z,100158.11
2018-07-01T07:38:05.944Z,100153.40
2018-07-01T07:40:32.848Z,100167.44
2018-07-01T07:43:07.916Z,100162.73
2018-07-01T07:45:43.573Z,100167.14
2018-07-01T07:48:10.528Z,100171.78
2018-07-01T07:50:37.395Z,100168.17
2018-07-01T07:53:04.307Z,100164.50
2018-07-01T07:55:31.184Z,100153.57
2018-07-01T07:57:58.084Z,100158.41
2018-07-01T08:00:25.925Z,100159.30
2018-07-01T08:02:58.394Z,100152.40
2018-07-01T08:05:29.151Z,100166.95
2018-07-01T08:07:55.876Z,100159.61
2018-07-01T08:10:25.829Z,100170.44
2018-07-01T08:12:54.481Z,100156.63
2018-07-01T08:15:25.242Z,100159.17
2018-07-01T08:17:56.065Z,100158.16
2018-07-01T08:20:27.512Z,100159.19
2018-07-01T08:22:58.932Z,100160.41
2018-07-01T08:25:28.671Z,100164.77
2018-07-01T08:27:58.392Z,100159.47
2018-07-01T08:30:29.845Z,100156.02
2018-07-01T08:33:03.555Z,100164.09
2018-07-01T08:35:32.494Z,100159.50
2018-07-01T08:38:03.177Z,100152.55
2018-07-01T08:40:33.475Z,100164.03
2018-07-01T08:43:01.146Z,100153.95
2018-07-01T08:45:31.067Z,100161.23
2018-07-01T08:48:15.732Z,100155.52
2018-07-01T08:50:49.970Z,100146.58
2018-07-01T08:53:19.603Z,100143.59
2018-07-01T08:55:47.498Z,100153.16
2018-07-01T08:58:16.136Z,100152.23
2018-07-01T09:00:45.047Z,100141.91
2018-07-01T09:03:12.891Z,100142.02
2018-07-01T09:05:45.493Z,100130.32
2018-07-01T09:08:14.075Z,100140.55
2018-07-01T09:10:44.103Z,100149.34
2018-07-01T09:13:14.956Z,100158.61
2018-07-01T09:15:41.888Z,100158.72
2018-07-01T09:18:09.847Z,100166.62
2018-07-01T09:20:37.787Z,100154.48
2018-07-01T09:23:04.720Z,100148.73
2018-07-01T09:25:31.620Z,100160.94
2018-07-01T09:27:59.892Z,100157.03
2018-07-01T09:30:26.787Z,100153.09
2018-07-01T09:32:56.723Z,100152.20
2018-07-01T09:35:24.747Z,100156.19
2018-07-01T09:37:52.466Z,100158.23
2018-07-01T09:40:19.528Z,100143.46
2018-07-01T09:42:50.434Z,100147.36
2018-07-01T09:45:19.111Z,100145.05
2018-07-01T09:47:50.154Z,100144.98
2018-07-01T09:50:17.442Z,100148.31
2018-07-01T09:52:47.267Z,100144.31
2018-07-01T09:55:14.147Z,100137.09
2018-07-01T09:57:42.059Z,100146.17
2018-07-01T10:00:10.060Z,100142.10
2018-07-01T10:02:53.835Z,100133.30
2018-07-01T10:05:22.943Z,100142.19
2018-07-01T10:07:49.872Z,100138.52
2018-07-01T10:10:18.593Z,100141.67
2018-07-01T10:12:53.759Z,100146.83
2018-07-01T10:15:20.909Z,100133.94
2018-07-01T10:17:48.103Z,100141.09
2018-07-01T10:20:18.067Z,100135.91
2018-07-01T10:22:49.463Z,100132.64
2018-07-01T10:25:27.907Z,100136.14
2018-07-01T10:27:57.910Z,100130.14
2018-07-01T10:30:26.676Z,100126.17
2018-07-01T10:32:58.399Z,100142.46
2018-07-01T10:35:36.916Z,100141.39
2018-07-01T10:38:09.715Z,100138.25
2018-07-01T10:40:39.775Z,100134.20
2018-07-01T10:43:23.889Z,100135.46
2018-07-01T10:45:53.226Z,100128.09
2018-07-01T10:48:26.436Z,100123.57
2018-07-01T10:50:54.648Z,100122.47
2018-07-01T10:53:21.668Z,100131.94
2018-07-01T10:55:52.828Z,100117.59
2018-07-01T10:58:22.484Z,100119.63
2018-07-01T11:00:49.495Z,100117.05
2018-07-01T11:03:17.515Z,100125.80
2018-07-01T11:05:48.115Z,100119.56
2018-07-01T11:08:15.085Z,100117.85
2018-07-01T11:10:45.651Z,100114.73
2018-07-01T11:13:14.607Z,100107.19
2018-07-01T11:15:42.634Z,100108.09
2018-07-01T11:18:12.656Z,100098.65
2018-07-01T11:20:44.033Z,100091.19
2018-07-01T11:23:24.371Z,100099.88
2018-07-01T11:25:54.179Z,100089.67
2018-07-01T11:28:22.116Z,100085.30
2018-07-01T11:30:49.562Z,100094.94
2018-07-01T11:33:21.447Z,100107.02
2018-07-01T11:35:49.426Z,100080.95
2018-07-01T11:38:18.286Z,100083.25
2018-07-01T11:40:45.155Z,100071.85
2018-07-01T11:43:12.164Z,100080.66
2018-07-01T11:45:50.263Z,100076.94
2018-07-01T11:48:18.111Z,100065.06
2018-07-01T11:50:45.059Z,100064.63
2018-07-01T11:53:15.959Z,100065.58
2018-07-01T11:55:45.944Z,100075.04
2018-07-01T11:58:14.974Z,100063.23
2018-07-01T12:00:48.103Z,100052.74
2018-07-01T12:03:24.780Z,100065.59
2018-07-01T12:05:55.115Z,100069.38
2018-07-01T12:08:23.097Z,100070.80
2018-07-01T12:10:50.034Z,100061.09
2018-07-01T12:13:21.395Z,100051.80
2018-07-01T12:15:48.365Z,100055.59
2018-07-01T12:18:17.368Z,100044.14
2018-07-01T12:20:44.315Z,100053.29
2018-07-01T12:23:12.395Z,100048.33
2018-07-01T12:25:40.191Z,100048.50
2018-07-01T12:28:09.178Z,100042.16
2018-07-01T12:30:37.227Z,100038.03
2018-07-01T12:33:06.189Z,100030.80
2018-07-01T12:35:35.174Z,100030.16
2018-07-01T12:38:03.975Z,100036.50
2018-07-01T12:40:34.474Z,100038.55
2018-07-01T12:43:01.468Z,100031.95
2018-07-01T12:45:29.508Z,100027.09
2018-07-01T12:47:56.557Z,100029.55
2018-07-01T12:50:23.496Z,100020.22
2018-07-01T12:52:51.175Z,100019.53
2018-07-01T12:55:18.168Z,100021.07
2018-07-01T12:57:45.219Z,100026.96
2018-07-01T13:00:12.263Z,100011.78
2018-07-01T13:02:40.239Z,100017.74
2018-07-01T13:05:10.874Z,100014.73
2018-07-01T13:07:37.816Z,99999.03
2018-07-01T13:10:04.768Z,100009.49
2018-07-01T13:12:32.751Z,100013.13
2018-07-01T13:15:00.957Z,100006.02
2018-07-01T13:17:28.616Z,100016.59
2018-07-01T13:19:59.287Z,100004.15
2018-07-01T13:22:31.139Z,100002.70
2018-07-01T13:25:02.431Z,100007.32
2018-07-01T13:27:32.331Z,99992.48
2018-07-01T13:29:59.948Z,99990.27
2018-07-01T13:32:29.208Z,99985.44
2018-07-01T13:34:56.229Z,99990.78
2018-07-01T13:37:23.240Z,99986.80
2018-07-01T13:39:52.291Z,99983.56
2018-07-01T13:42:21.157Z,99978.98
2018-07-01T13:44:48.236Z,99984.13
2018-07-01T13:47:16.211Z,99990.02
2018-07-01T13:49:43.256Z,99981.47
2018-07-01T13:52:10.188Z,99972.64
2018-07-01T13:54:37.206Z,99974.27
2018-07-01T13:57:05.320Z,99971.30
2018-07-01T13:59:32.287Z,99979.88
2018-07-01T14:01:59.160Z,99983.86
2018-07-01T14:04:27.152Z,99980.11
2018-07-01T14:06:54.723Z,99971.23
2018-07-01T14:09:21.735Z,99977.05
2018-07-01T14:11:49.686Z,99969.90
2018-07-01T14:14:16.620Z,99970.97
2018-07-01T14:16:43.571Z,99959.67
2018-07-01T14:19:10.531Z,99964.02
2018-07-01T14:21:37.606Z,99960.47
2018-07-01T14:24:04.551Z,99956.53
2018-07-01T14:26:31.505Z,99962.17
2018-07-01T14:28:58.834Z,99958.64
2018-07-01T14:31:26.096Z,99958.97
2018-07-01T14:33:53.716Z,99952.89
2018-07-01T14:36:20.811Z,99948.84
2018-07-01T14:38:47.853Z,99956.88
2018-07-01T14:41:14.799Z,99957.20
2018-07-01T14:43:41.737Z,99944.92
2018-07-01T14:46:09.278Z,99959.15
2018-07-01T14:48:36.307Z,99949.47
2018-07-01T14:51:04.184Z,99948.67
2018-07-01T14:53:31.116Z,99937.52
2018-07-01T14:55:58.517Z,99927.47
2018-07-01T14:58:25.487Z,99936.63
2018-07-01T15:00:52.467Z,99937.63
2018-07-01T15:03:19.487Z,99931.08
2018-07-01T15:05:46.428Z,99934.20
2018-07-01T15:08:14.203Z,99941.27
2018-07-01T15:10:41.152Z,99943.77
2018-07-01T15:13:08.159Z,99942.28
2018-07-01T15:15:35.760Z,99933.55
2018-07-01T15:18:02.667Z,99925.52
2018-07-01T15:20:30.292Z,99932.73
2018-07-01T15:22:57.287Z,99930.55
2018-07-01T15:25:24.306Z,99924.97
2018-07-01T15:27:51.299Z,99918.16
2018-07-01T15:30:18.268Z,99921.03
2018-07-01T15:32:45.220Z,99928.23
2018-07-01T15:35:12.756Z,99906.28
2018-07-01T15:37:39.743Z,99906.39
2018-07-01T15:40:07.839Z,99918.86
2018-07-01T15:42:37.771Z,99911.34
2018-07-01T15:45:06.403Z,99904.67
2018-07-01T15:47:34.203Z,99906.66
2018-07-01T15:50:01.212Z,99906.27
2018-07-01T15:52:28.160Z,99913.08
2018-07-01T15:54:55.167Z,99898.59
2018-07-01T15:57:22.051Z,99909.56
2018-07-01T15:59:49.063Z,99905.41
2018-07-01T16:02:17.036Z,99903.16
2018-07-01T16:04:43.944Z,99907.32
2018-07-01T16:07:10.895Z,99896.92
2018-07-01T16:09:37.890Z,99898.84
2018-07-01T16:12:04.839Z,99899.31
2018-07-01T16:14:32.739Z,99909.28
2018-07-01T16:16:59.683Z,99903.26
2018-07-01T16:19:26.719Z,99900.80
2018-07-01T16:21:54.331Z,99896.37
2018-07-01T16:24:21.279Z,99898.43
2018-07-01T16:26:59.237Z,99890.70
2018-07-01T16:29:26.780Z,99889.27
2018-07-01T16:31:53.723Z,99882.92
2018-07-01T16:34:20.687Z,99883.31
2018-07-01T16:36:47.647Z,99890.45
2018-07-01T16:39:14.594Z,99880.50
2018-07-01T16:41:42.888Z,99888.91
2018-07-01T16:44:09.924Z,99887.59
2018-07-01T16:46:36.877Z,99886.48
2018-07-01T16:49:03.927Z,99881.03
2018-07-01T16:51:31.149Z,99883.92
2018-07-01T16:53:58.096Z,99882.00
2018-07-01T16:56:24.999Z,99880.20
2018-07-01T16:58:51.983Z,99886.25
2018-07-01T17:01:18.853Z,99883.05
2018-07-01T17:03:45.735Z,99889.13
2018-07-01T17:06:12.855Z,99889.88
2018-07-01T17:08:40.354Z,99893.11
2018-07-01T17:11:07.235Z,99893.78
2018-07-01T17:13:34.103Z,99892.13
2018-07-01T17:16:02.780Z,99894.28
2018-07-01T17:18:29.671Z,99883.72
2018-07-01T17:20:57.040Z,99890.09
2018-07-01T17:23:23.994Z,99887.46
2018-07-01T17:25:52.853Z,99884.55
2018-07-01T17:28:20.404Z,99884.73
2018-07-01T17:30:47.315Z,99888.25
2018-07-01T17:33:20.047Z,99883.61
2018-07-01T17:35:46.921Z,99886.41
2018-07-01T17:38:13.824Z,99893.95
2018-07-01T17:40:40.786Z,99883.88
2018-07-01T17:43:07.659Z,99880.63
2018-07-01T17:45:34.580Z,99880.51
2018-07-01T17:48:01.461Z,99879.48
2018-07-01T17:50:28.454Z,99882.39
2018-07-01T17:52:55.346Z,99880.66
2018-07-01T17:55:22.228Z,99890.05
2018-07-01T17:57:49.123Z,99879.58
2018-07-01T18:00:16.014Z,99881.11
2018-07-01T18:02:42.934Z,99884.35
2018-07-01T18:05:09.803Z,99879.84
2018-07-01T18:07:36.662Z,99877.65
2018-07-01T18:10:03.529Z,99878.02
2018-07-01T18:12:30.400Z,99886.17
2018-07-01T18:14:57.266Z,99887.25
2018-07-01T18:17:24.147Z,99890.30
2018-07-01T18:19:51.031Z,99882.00
2018-07-01T18:22:35.923Z,99886.02
2018-07-01T18:25:01.551Z,99889.95
2018-07-01T18:27:11.672Z,99887.48
2018-07-01T18:29:38.551Z,99898.09
2018-07-01T18:32:05.459Z,99898.58
2018-07-01T18:34:32.331Z,99891.64
2018-07-01T18:36:59.236Z,99891.77
2018-07-01T18:39:26.815Z,99892.67
2018-07-01T18:41:53.763Z,99893.08
2018-07-01T18:44:20.715Z,99894.05
2018-07-01T18:46:47.848Z,99894.58
2018-07-01T18:49:16.791Z,99895.98
2018-07-01T18:51:44.784Z,99896.14
2018-07-01T18:54:12.375Z,99892.55
2018-07-01T18:56:39.259Z,99900.63
2018-07-01T18:59:06.188Z,99898.77
2018-07-01T19:01:33.152Z,99897.57
2018-07-01T19:04:01.825Z,99896.70
2018-07-01T19:06:28.699Z,99897.98
2018-07-01T19:08:55.559Z,99902.84
2018-07-01T19:11:22.472Z,99901.02
2018-07-01T19:13:49.365Z,99900.70
2018-07-01T19:16:16.236Z,99906.23
2018-07-01T19:18:43.181Z,99905.32
2018-07-01T19:21:10.028Z,99909.20
2018-07-01T19:23:37.515Z,99905.36
2018-07-01T19:26:04.468Z,99908.38
2018-07-01T19:28:31.331Z,99914.81
2018-07-01T19:30:58.215Z,99915.98
2018-07-01T19:33:25.091Z,99923.56
2018-07-01T19:35:52.187Z,99926.49
2018-07-01T19:38:22.084Z,99926.78
2018-07-01T19:40:48.964Z,99925.58
2018-07-01T19:43:15.891Z,99927.41
2018-07-01T19:45:42.794Z,99920.23
2018-07-01T19:48:11.376Z,99932.17
2018-07-01T19:50:38.339Z,99926.54
2018-07-01T19:53:05.904Z,99936.48
2018-07-01T19:55:34.340Z,99931.09
2018-07-01T19:58:02.872Z,99935.73
2018-07-01T20:00:29.908Z,99943.62
2018-07-01T20:03:00.835Z,99942.11
2018-07-01T20:05:28.426Z,99949.11
2018-07-01T20:07:59.443Z,99947.30
2018-07-01T20:10:26.355Z,99952.51
2018-07-01T20:12:53.248Z,99955.15
2018-07-01T20:15:20.099Z,99965.99
2018-07-01T20:17:46.972Z,99968.27
2018-07-01T20:20:13.844Z,99964.20
2018-07-01T20:22:40.692Z,99961.27
2018-07-01T20:25:07.607Z,99960.87
2018-07-01T20:27:34.459Z,99963.28
2018-07-01T20:30:01.311Z,99964.52
2018-07-01T20:32:28.163Z,99960.42
2018-07-01T20:34:55.055Z,99956.67
2018-07-01T20:37:21.906Z,99967.05
2018-07-01T20:39:48.759Z,99957.14
2018-07-01T20:42:15.636Z,99964.61
2018-07-01T20:44:42.487Z,99961.70
2018-07-01T20:47:09.359Z,99962.27
2018-07-01T20:49:36.226Z,99962.23
2018-07-01T20:52:03.108Z,99961.42
2018-07-01T20:54:29.958Z,99963.59
2018-07-01T20:56:56.823Z,99961.61
2018-07-01T20:59:23.687Z,99968.42
2018-07-01T21:01:50.535Z,99970.77
2018-07-01T21:04:17.400Z,99966.65
2018-07-01T21:06:44.259Z,99977.59
2018-07-01T21:09:11.552Z,99967.48
2018-07-01T21:11:38.411Z,99965.31
2018-07-01T21:14:05.389Z,99963.81
2018-07-01T21:16:32.248Z,99964.03
2018-07-01T21:18:59.102Z,99967.50
2018-07-01T21:21:25.947Z,99973.89
2018-07-01T21:23:52.798Z,99975.34
2018-07-01T21:26:19.659Z,99975.84
2018-07-01T21:28:46.512Z,99978.25
2018-07-01T21:31:13.384Z,99976.27
2018-07-01T21:33:40.230Z,99987.70
2018-07-01T21:36:07.079Z,99987.69
2018-07-01T21:38:33.943Z,99985.34
2018-07-01T21:41:00.871Z,99987.17
2018-07-01T21:43:27.727Z,99992.75
2018-07-01T21:45:54.593Z,99987.42
2018-07-01T21:48:21.455Z,99986.98
2018-07-01T21:50:48.343Z,99984.75
2018-07-01T21:53:15.231Z,99989.08
2018-07-01T21:55:42.094Z,99990.20
2018-07-01T21:58:09.094Z,99996.26
2018-07-01T22:00:35.971Z,99992.84
2018-07-01T22:03:03.882Z,100001.23
2018-07-01T22:05:30.871Z,99996.73
2018-07-01T22:07:57.809Z,100001.66
2018-07-01T22:10:36.324Z,100000.31
2018-07-01T22:13:42.399Z,99991.49
2018-07-01T22:16:09.269Z,99999.30
2018-07-01T22:18:36.111Z,100002.70
2018-07-01T22:21:02.976Z,100005.44
2018-07-01T22:23:29.830Z,100009.00
2018-07-01T22:25:56.691Z,100007.94
2018-07-01T22:28:23.551Z,100006.69
2018-07-01T22:30:50.427Z,100005.23
2018-07-01T22:33:17.306Z,100000.41
2018-07-01T22:35:44.170Z,99998.00
2018-07-01T22:38:11.911Z,99996.05
2018-07-01T22:40:38.784Z,100004.66
2018-07-01T22:43:05.648Z,100003.16
2018-07-01T22:45:32.510Z,99999.77
2018-07-01T22:47:59.383Z,100001.13
2018-07-01T22:50:26.239Z,100002.47
2018-07-01T22:52:53.099Z,99998.42
2018-07-01T22:55:19.971Z,99998.81
2018-07-01T22:57:46.836Z,100003.26
2018-07-01T23:00:13.707Z,99997.53
2018-07-01T23:03:12.182Z,99994.98
2018-07-01T23:05:39.051Z,99998.84
2018-07-01T23:08:05.903Z,99990.45
2018-07-01T23:10:32.931Z,99987.13
2018-07-01T23:13:00.041Z,99985.70
2018-07-01T23:15:26.919Z,99991.32
2018-07-01T23:17:54.187Z,99996.52
2018-07-01T23:20:21.056Z,100000.03
2018-07-01T23:22:47.914Z,99998.21
2018-07-01T23:25:14.921Z,99999.95
2018-07-01T23:27:43.719Z,99993.08
2018-07-01T23:30:10.583Z,100000.84
2018-07-01T23:32:37.500Z,99994.80
2018-07-01T23:35:04.490Z,99995.66
2018-07-01T23:37:31.370Z,100003.89
2018-07-01T23:39:58.248Z,99998.09
2018-07-01T23:42:25.194Z,99993.89
2018-07-01T23:44:52.042Z,99999.23
2018-07-01T23:47:19.487Z,99990.20
2018-07-01T23:49:46.363Z,99987.42
2018-07-01T23:52:13.231Z,99987.73
2018-07-01T23:54:40.103Z,99983.91
2018-07-01T23:57:06.955Z,99987.96
2018-07-01T23:59:33.810Z,99973.59
